cliquez pour ajouter le site Runraid à vos favoris  English version (google)  Retour à l'accueil Ecrire à l'auteur du site Runraid : Michel Jourdan



Les prochaines courses


Les derniers résultats

cliquez pour visualiser la page complète relatant la chronologie des éruptions du Piton de la Fournaise
éruptions Piton de la Fournaise


Ile de La Réunion

 Diagonale des Fous 

Ecrire au créateur du site : Michel Jourdan
Contact


2017-05-20 - 10km nocturne de Saint-Denis

Pour consulter le palmarès d'un coureur, un clic sur son nom !

Vous avez des remarques, corrections, ... sur ces résultats , un clic sur --> pour me transmettre toute information concernant les classements


10km nocturne de Saint-Denis - 2017 : classement des 566 finishers
Place Nom Temps Cat. Club Sexe Clt/cat.
Place Nom Temps Cat. Club Sexe Clt/cat.
1 MOSIAKO Thabang Emmanue 00:30:05 ESM RUN O2 974 M 1 ESM 495
2 MAVUSO XABA 00:33:04 ESM M 2 ESM 436
3 SAFAOUI MOHAMED 00:33:11 SEM TCSA M 1 SEM 409
4 SANION Siurfa 00:33:14 SEM DENIV M 2 SEM 375
5 MOOTOOSSAMY CHRISTOPHE 00:33:48 SEM M 3 SEM 437
6 CADET JEAN MARIE 00:33:54 V1M AC ENTENTE M 1 V1M 372
7 CHEONG YUEN ZING Guillaume 00:34:02 SEM CAPOSS M 4 SEM 134
8 NARAIN VIKASH 00:34:30 SEM M 5 SEM 439
9 LEOCADIE Rene Paul 00:34:55 V1M CAPP M 2 V1M 641
10 DIJOUX JEAN BERNARD 00:35:16 V1M AVAD M 3 V1M 382
11 CONSTANCE DILAN MIKE 00:36:04 ESM M 3 ESM 434
12 TOURON JEAN PHILIPPE 00:36:09 SEM M 6 SEM 367
13 BOUFARIHA ABDELJALIL 00:36:50 V1M CASM M 4 V1M 544
14 BOBATE RESHAD 00:36:51 SEM CSSDA M 7 SEM 81
15 BILLARD JEROME 00:37:39 SEM TCSA M 8 SEM 99
16 SOOBEN Laval cliff 00:37:51 V2M M 1 V2M 103
17 CHEONG YUEN ZING Jerome 00:37:51 SEM M 9 SEM 238
18 TECHER Ivan 00:37:55 SEM RUN O2 974 M 10 SEM 494
19 LAGOURDE Cedric 00:37:55 SEM M 11 SEM 475
20 CHEFIARE Etienne 00:38:01 V1M AC ENTENTE M 5 V1M 560
21 JEAN BAPTISTE MATHIEU 00:38:02 SEM M 12 SEM 353
22 TOULCANON LOUIS ALEXANDRE 00:38:07 SEM M 13 SEM 366
23 DJELTI NOURIA 00:38:13 V1F AC ENTENTE F 1ere F 345
24 TOURE JEAN MARC 00:38:34 V1M USPGA M 6 V1M 194
25 DRASIN PASCAL 00:38:34 SEM M 14 SEM 429
26 ISSACK Yahya 00:38:37 SEM ASPN M 15 SEM 629
27 QUENEHEN DAVID 00:38:40 V1M RUN O2 974 M 7 V1M 212
28 MERMERA Fred 00:38:44 V2M M 2 V2M 596
29 KAISSE jerome 00:38:58 V1M M 8 V1M 167
30 SAUTRON JULIEN 00:39:03 SEM DENIV M 16 SEM 344
31 ROBERT Theophane 00:39:05 SEM M 17 SEM 644
32 ODULES Mederic 00:39:06 V2M M 3 V2M 603
33 PAYET Sebastien 00:39:20 SEM ATHLETIQUE M 18 SEM 510
34 TRIHAN MALO 00:39:23 V1M ACSP M 9 V1M 237
35 SOUDJAOUAMA Jean Francois 00:39:26 V2M M 4 V2M 478
36 SILEZA Bruno 00:39:33 V2M M 5 V2M 471
37 MONDIA John 00:39:37 SEM RDB M 19 SEM 505
38 GIRAUDET PATRICK 00:39:40 V2M RUN O2 974 M 6 V2M 545
39 RIBAUT ALAIN 00:39:45 V2M BNA M 7 V2M 66
40 MOUTEAU Pascal 00:39:48 V1M M 10 V1M 188
41 PARENT olivier 00:39:50 V1M M 11 V1M 88
42 RUBLON Pierre 00:39:53 V1M M 12 V1M 97
43 TECHER VINCENT 00:39:57 SEM RUN O2 974 M 20 SEM 521
44 NOEL Jean Alain 00:40:01 SEM M 21 SEM 553
45 FATOL Thierry 00:40:05 SEM M 22 SEM 568
46 RECHICHOU Jean Denis 00:40:19 CAM M 1 CAM 487
47 MOUSSA FAYYAZ 00:40:23 SEM M 23 SEM 61
48 GOMES Andre 00:40:27 V2M M 8 V2M 266
49 VIDOT YANNICK 00:40:30 V1M BNA M 13 V1M 536
50 PICARD VINCENT 00:40:33 SEM M 24 SEM 454
51 MASSAIN Jacques 00:40:39 V3M BNA M 1 V3M 642
52 MITRHIDATE Jimmy 00:40:40 SEM M 25 SEM 598
53 ZITTE RAPHAEL 00:40:41 SEM CSSDA M 26 SEM 406
54 SANGELLE DAVID 00:40:46 V1M M 14 V1M 221
55 HAMILCARO JEAN DOMINIQUE 00:40:47 V2M M 9 V2M 447
56 GARLOPEAU Julien 00:40:47 SEM AC ENTENTE M 27 SEM 561
57 NARAYANIN Honore 00:40:51 V2M M 10 V2M 567
58 SAMBENOUN MARCELIN 00:40:54 V2M TCSA M 11 V2M 418
59 ELLAMA Roland 00:40:58 V3M AVAD M 2 V3M 479
60 JOBERT CHRISTIAN 00:41:00 V3M AC ENTENTE M 3 V3M 373
61 RELIQUE JEREMY 00:41:03 ESM CAPC M 4 ESM 520
62 LACOUDRAY GEORGET 00:41:04 V2M M 12 V2M 450
63 DOUYERE Benjamin 00:41:06 SEM M 28 SEM 77
64 OODOOMANSAIB KEN 00:41:10 SEM M 29 SEM 223
65 VANDEWALLE virgile 00:41:11 SEM M 30 SEM 526
66 KOO PIN HIN yassin 00:41:16 SEM M 31 SEM 128
67 PAYET ANTOINE 00:41:27 SEM ATHLETIQUE M 32 SEM 407
68 MARCHETTI Pascal 00:41:29 V2M DENIV M 13 V2M 620
69 ANAMMIALO Thierry 00:41:34 SEM M 33 SEM 500
70 KONDOKI JEAN CLAUDE 00:41:37 V2M ACP M 14 V2M 381
71 SISSOKO Mohamet 00:41:38 SEM M 34 SEM 27
72 ERIMA Ludovic 00:41:39 SEM M 35 SEM 591
73 PAYET LUDO 00:41:40 V2M ATHLETIQUE M 15 V2M 408
74 SOLENTE WILLY 00:41:42 V1M DENIV M 15 V1M 511
75 LEOCADIE Jean Louis 00:41:45 V2M CAPP M 16 V2M 638
76 QUENU STEPHANE 00:41:50 V1M M 16 V1M 432
77 LOPEZ PEGGY 00:41:54 V1F ACSP F 2eme F 114
78 ACHELOU ANGELIN 00:42:03 V2M M 17 V2M 564
79 DUBOIS Florent 00:42:10 SEM M 36 SEM 116
80 LOUISE Jean Maurice 00:42:24 V1M M 17 V1M 288
81 TREPORT Thierry 00:42:30 V1M M 18 V1M 140
82 VICTOIRE Henrico 00:42:31 V1M ASPN M 19 V1M 575
83 ARISTANGELE Herve 00:42:39 V2M M 18 V2M 588
84 PAYET Mickael 00:42:43 V1M M 20 V1M 607
85 LEBOUCHER jean sebastien 00:42:46 V1M M 21 V1M 276
86 NOURRY Freddy 00:42:47 SEM RDB M 37 SEM 623
87 GUYOT Daniel 00:42:47 V2M M 19 V2M 8
88 LAUP Samuel 00:42:57 CAM CAPP M 2 CAM 640
89 ROUGET Arielle 00:42:59 SEF F 3eme F 335
90 TEVANEE Darry 00:43:00 CAM AB M 3 CAM 365
91 HAMILCARO JEAN GUILBERT 00:43:06 V1M M 22 V1M 448
92 LAW TCHI KUN JEAN BERNARD 00:43:07 V2M CSSDA M 20 V2M 175
93 HOARAU Jean Pascal 00:43:08 V1M ATHLETIQUE M 23 V1M 508
94 PIQUANT LUDOVIC 00:43:09 V1M M 24 V1M 144
95 HOARAU jean calixte 00:43:16 V2M M 21 V2M 74
96 CLAIN GILBERT 00:43:18 V2M RDB M 22 V2M 63
97 SANINI ahmed 00:43:23 V2M M 23 V2M 87
98 PEYEN Loic 00:43:24 SEM M 38 SEM 324
99 GONTHIER Patrice 00:43:26 V1M M 25 V1M 142
100 HOARAU christian 00:43:28 SEM M 39 SEM 161
101 BeGUE Alexandre 00:43:31 SEM M 40 SEM 132
102 SAUTRON bernard 00:43:35 V1M M 26 V1M 186
103 ELISABETH DAVID 00:43:36 V1M RDB M 27 V1M 415
104 DUBOIS Matthieu 00:43:38 SEM M 41 SEM 211
105 BOUSQUET Matthieu 00:43:40 SEM M 42 SEM 73
106 DAVID OLIVIER 00:43:41 V1M DENIV M 28 V1M 282
107 HOSPIED Arthur 00:43:42 SEM M 43 SEM 527
108 ESTHER FABRICE 00:43:43 SEM TCSA M 44 SEM 334
109 SERVEAUX Samuel Joselito 00:43:46 V1M M 29 V1M 25
110 FOCK Jean Michel 00:43:54 V1M M 30 V1M 412
111 DORe David 00:43:56 V1M M 31 V1M 166
112 BLANCHON Joel 00:44:04 V1M M 32 V1M 59
113 GOUEDAR Alexis 00:44:06 CAM M 4 CAM 594
114 DENNEMONT SYLVAIN 00:44:09 V2M ACBP M 24 V2M 546
115 EITO Davy 00:44:11 V1M M 33 V1M 502
116 PATEL KHALIL 00:44:17 SEM DENIV M 45 SEM 275
117 GODERIS Loic 00:44:23 SEM M 46 SEM 133
118 LAMOLLE Florian 00:44:23 SEM M 47 SEM 109
119 DEMOUSTIER Jean Francois 00:44:28 V2M M 25 V2M 250
120 DOSITE JEAN CHARLES 00:44:29 V1M M 34 V1M 445
121 RAMAYE ALEXANDRE 00:44:29 JUM BDN RUNING M 1 JUM 102
122 SALLE Ted 00:44:31 V1M M 35 V1M 126
123 GOBALRAJA Jean Yves 00:44:34 V2M M 26 V2M 493
124 WADAANE ramzi 00:44:37 SEM M 48 SEM 105
125 BITROU GAILLARD ANNE 00:44:39 V1F DENIV F 4 F - 3 V1F 538
126 MULOT JOSEPH JOHNY 00:44:41 V1M RDB M 36 V1M 56
127 M'TIMA JEAN RENE 00:44:46 V1M M 37 V1M 358
128 DALLEAU Wilfried 00:44:53 SEM M 49 SEM 9
129 LAMBRIQUET VINCENT 00:44:54 SEM M 50 SEM 302
130 LADOCILE STEPHANO 00:45:01 V1M M 38 V1M 563
131 BRUCH William 00:45:02 SEM M 51 SEM 70
132 ARRIBI Nicolas 00:45:04 SEM BNA M 52 SEM 496
133 PLASSARD Arnaud 00:45:08 SEM M 53 SEM 628
134 GIBARROUX CYRIL 00:45:18 V1M M 39 V1M 98
135 GERARDIN EMILIAN 00:45:22 JUM M 2 JUM 37
136 FILAIN CEDRIC 00:45:23 SEM M 54 SEM 350
137 CORALIN REGIS 00:45:30 V3M M 4 V3M 443
138 GERARD Daniel 00:45:36 V2M M 27 V2M 236
139 ILAHA Vincent 00:45:38 SEM M 55 SEM 626
140 BANCALIN Frederic 00:45:43 SEM M 56 SEM 376
141 PAYET YANNICK 00:45:47 V1M ACSP M 40 V1M 337
142 PERMALAMA Alexandre 00:45:48 SEM M 57 SEM 259
143 BERTHELOT franck 00:45:54 V1M M 41 V1M 60
144 LEOCADIE Gilles 00:45:59 V1M M 42 V1M 537
145 LOUTCHMIA DOMINIQUE 00:46:00 V1M TCSA M 43 V1M 273
146 PICQUE Bertrand 00:46:01 SEM M 58 SEM 47
147 POLLUX FREDERIC 00:46:02 SEM CAPOSS M 59 SEM 529
148 TURPIN Bruno 00:46:07 SEM M 60 SEM 336
149 POUPPEVILLE CEDRIC 00:46:09 SEM M 61 SEM 15
150 TAYAMA MICKAEL 00:46:12 SEM CSSDA M 62 SEM 377
151 FOWLER GARY 00:46:14 V2M AC ENTENTE M 28 V2M 48
152 COCHETEL Christian 00:46:18 V2M M 29 V2M 635
153 FILAIN Dylan 00:46:20 JUM M 3 JUM 619
154 ICHANE WILLY 00:46:23 SEM ASPN M 63 SEM 576
155 GUICHARD Gilles 00:46:24 V3M M 5 V3M 315
156 AMPLE Laurent 00:46:29 V1M M 44 V1M 143
157 PAYET Patrick 00:46:30 V1M M 45 V1M 290
158 GOMEZ DOMINIQUE 00:46:32 V1F AC ENTENTE F 5 F - 4 V1F 234
159 BEGUE eddy 00:46:39 V2M M 30 V2M 528
160 PASTOR MICHEL 00:46:39 V2M RCSD M 31 V2M 192
161 LEPINAY JOEL 00:46:40 V2M M 32 V2M 206
162 ORUS Franck 00:46:47 SEM M 64 SEM 605
163 QUEST Philippe 00:46:50 V1M RCSD M 46 V1M 646
164 VAITILINGOM Alexandre 00:46:51 V1M M 47 V1M 580
165 MENEUX SEBASTIEN 00:46:51 SEM M 65 SEM 219
166 ODULES Emmmanuel 00:46:54 SEM M 66 SEM 314
167 FONTAINE Vincent Jules 00:46:57 SEM M 67 SEM 298
168 MAILLOT Serges 00:46:58 V3M M 6 V3M 129
169 ABSYTE HENDRIC 00:47:00 SEM DENIV M 68 SEM 239
170 BIDINGER PIERRE 00:47:01 V2M M 33 V2M 153
171 CORRE ERIC 00:47:02 SEM M 69 SEM 252
172 ENGUEHARD MICHEL 00:47:13 V2M CAPOSS M 34 V2M 1
173 ELY laurent 00:47:20 V1M M 48 V1M 10
174 CHANE WING ULYSSE 00:47:20 V1M M 49 V1M 265
175 VAITY Bruno 00:47:20 V1M M 50 V1M 611
176 GRONDIN PASCAL 00:47:24 V1M TCSA M 51 V1M 135
177 AFETTOUCHE CORINNE 00:47:27 SEF CAPOSS F 6 F - 2 SEF 246
178 TARA teddy 00:47:30 V1M M 52 V1M 112
179 HEURTIN Frederic 00:47:31 V1M M 53 V1M 283
180 VIRIN JONATHAN 00:47:31 SEM M 70 SEM 145
181 CHANE THIME Jean Francois 00:47:32 V2M M 35 V2M 625
182 LALA SALMA 00:47:34 SEF CSSDA F 7 F - 3 SEF 269
183 RIBOTTE GHISLAINE 00:47:36 V1F ASPN F 8 F - 5 V1F 574
184 BARBE Yohan 00:47:39 V1M M 54 V1M 39
185 CADJEE Hamza 00:47:43 V1M M 55 V1M 637
186 DEROSE Jean Louis 00:47:46 SEM M 71 SEM 170
187 RICHARD Joel 00:47:47 V1M M 56 V1M 633
188 CADI PAUL 00:47:52 V1M M 57 V1M 346
189 LEPERLIER PASCAL 00:47:56 V2M M 36 V2M 541
190 BENAROUS William 00:47:58 V2M M 37 V2M 569
191 PIANEZZE Joris 00:47:59 SEM M 72 SEM 69
192 DEMERY FRANCK 00:48:00 V1M M 58 V1M 94
193 ARZAC Max 00:48:07 SEM M 73 SEM 150
194 SIMONPIERI Enzo Gandalf 00:48:09 CAM M 5 CAM 171
195 CARLIER Giovanni 00:48:10 SEM M 74 SEM 476
196 CHEBAT JOFFREY 00:48:11 SEM M 75 SEM 218
197 RAMOUNET OLIVIER 00:48:15 SEM M 76 SEM 514
198 BARBOTIN benoit 00:48:18 V1M M 59 V1M 226
199 COTTE JOELLE 00:48:19 V1F F 9 F - 6 V1F 562
200 CASTELLANO BENJAMIN 00:48:20 SEM M 77 SEM 442
201 PAUSE Jean Bernard 00:48:21 SEM M 78 SEM 509
202 BLANC GUILLAUME 00:48:23 SEM M 79 SEM 441
203 KERNER SYLVAIN 00:48:23 V1M M 60 V1M 449
204 GRONDIN GENTIL 00:48:26 V1M M 61 V1M 18
205 TOUSSAINT Mireille 00:48:27 V1F F 10 F - 7 V1F 86
206 DEPUILLE Fabrice 00:48:31 V1M M 62 V1M 189
207 BRUNET quentin 00:48:39 SEM M 80 SEM 122
208 LEOCADIE Samuel Rudy 00:48:40 CAM CAPP M 6 CAM 639
209 VERZEAUX Sebastien 00:48:40 SEM M 81 SEM 120
210 LAMBES OLIVIER 00:48:49 V1M M 63 V1M 540
211 BOISSON frederic 00:48:50 V2M M 38 V2M 49
212 TREPORT JULIEN 00:48:58 CAM M 7 CAM 146
213 ESTHER DAVID 00:49:00 V1M M 64 V1M 249
214 LORRAINE GUY THIERRY 00:49:02 V1M TCSA M 65 V1M 64
215 FOUDRIN jean roland 00:49:03 SEM M 82 SEM 163
216 THEPAUT Franck 00:49:05 V1M M 66 V1M 268
217 VICTORINE YANIS 00:49:06 V1M CSSDA M 67 V1M 93
218 INGAR YAZID 00:49:08 V1M M 68 V1M 251
219 LE NEVE LAURETTE 00:49:09 ESF F 11 F - 1 ESF 355
220 ALMAS Roger 00:49:11 V1M M 69 V1M 224
221 FURIA jean noel 00:49:18 V1M M 70 V1M 305
222 CAMPION DENIS 00:49:19 V1M M 71 V1M 213
223 GRIMOIRE Jean Michel 00:49:23 V2M CAPOSS M 39 V2M 627
224 RAKOTOARIMANANA PATRICK 00:49:23 V2M M 40 V2M 158
225 BRUNIQUET Anthony 00:49:24 ESM M 5 ESM 289
226 MARA MARIE CLAUDINE 00:49:25 V1F F 12 F - 8 V1F 452
227 GAUDINO ANGELIQUE 00:49:25 V2F DENIV F 13 F - 1 V2F 23
228 KOE eric 00:49:25 V1M M 72 V1M 518
229 MAILLOT EMMANUEL 00:49:30 SEM M 83 SEM 241
230 CELESTE MARIE FRANCOISE 00:49:33 V2F F 14 F - 2 V2F 347
231 MOOLAN Yazid 00:49:40 SEM M 84 SEM 513
232 CRENN stephane 00:49:46 SEM M 85 SEM 342
233 CABRERA Daniel 00:49:50 SEM M 86 SEM 106
234 VALCARES MICHEL 00:49:53 V2M M 41 V2M 369
235 JOSEPH MYLENE 00:49:56 V2F CSSDA F 15 F - 3 V2F 91
236 CASSAM IBRAHIM ABDOULLAH 00:50:02 SEM ASPN M 87 SEM 573
237 LEPINAY Francoise 00:50:10 V1F F 16 F - 9 V1F 205
238 INCANA PATRICE 00:50:13 V1M RCSD M 73 V1M 111
239 MUSSARD Nathalie 00:50:16 V1F F 17 F - 10 V1F 270
240 CAMATCHY Johny 00:50:19 V1M M 74 V1M 530
241 RIVIERE jean maurice 00:50:20 V2M M 42 V2M 403
242 MALINGA Richeline 00:50:21 SEF CAPOSS F 18 F - 4 SEF 614
243 DELMAS JOEL 00:50:23 V3M M 7 V3M 349
244 PAUSE jean Rosaire 00:50:28 V1M M 75 V1M 405
245 BOUTET SUZETTE 00:50:29 V2F F 19 F - 4 V2F 371
246 FONTAINE ludovic 00:50:31 SEM M 88 SEM 534
247 CORENTHY Ulric 00:50:34 SEM M 89 SEM 458
248 BORNET Laurent 00:50:35 V1M M 76 V1M 267
249 MARTIN Benedicte 00:50:37 V1F F 20 F - 11 V1F 24
250 VAITY Vanessa 00:50:37 SEF F 21 F - 5 SEF 612
251 FILAIN stephane 00:50:38 SEM M 90 SEM 292
252 ORUS Lina 00:50:38 SEF F 22 F - 6 SEF 604
253 TIBERE Jean Baptiste Hugues 00:50:39 V2M M 43 V2M 222
254 FONTAINE Bruno 00:50:40 SEM M 91 SEM 131
255 HAMMERER PIERRE 00:50:41 SEM M 92 SEM 435
256 POTHIN eric 00:50:46 SEM M 93 SEM 260
257 GARDENAT JEAN PIERRE 00:50:49 V2M M 44 V2M 565
258 SIMJEE RAYHANN 00:50:50 SEM M 94 SEM 440
259 DORSEUIL Richard 00:50:51 V2M M 45 V2M 28
260 BARBAZA MARION 00:50:52 CAF AC ENTENTE F 23 F - 1 CAF 533
261 BAPTISTO Jean Yves 00:50:53 V2M M 46 V2M 503
262 MAHERAULT Laetitia 00:50:55 SEF F 24 F - 7 SEF 326
263 BOULEVART jerome 00:50:59 SEM M 95 SEM 33
264 FACONNIER Emmanuel 00:51:03 SEM M 96 SEM 92
265 LEPERLIER Samuel 00:51:03 SEM M 97 SEM 257
266 BOYER Marcel Felix 00:51:06 V1M M 77 V1M 263
267 QUEST Magali 00:51:08 V1F RCSD F 25 F - 12 V1F 647
268 TRESSENS olivier 00:51:11 V1M M 78 V1M 248
269 HOAREAU Daniel 00:51:14 V2M M 47 V2M 473
270 FRANCOISE Alain 00:51:18 V2M M 48 V2M 68
271 RENAUD stephanie 00:51:18 V1F F 26 F - 13 V1F 30
272 AH THIANE DAVID 00:51:19 SEM M 98 SEM 433
273 GIGAN MARCEL 00:51:20 V2M M 49 V2M 51
274 NOEL MICHAEL 00:51:22 SEM M 99 SEM 359
275 HOARAU Olivier 00:51:30 SEM M 100 SEM 630
276 LABBE PASCAL 00:51:30 V2M M 50 V2M 374
277 LAROSE Emmanuel 00:51:32 SEM M 101 SEM 242
278 VIDOT Luciano 00:51:36 CAM M 8 CAM 599
279 SINIMALE FRANCOIS 00:51:46 V1M CAPOSS M 79 V1M 318
280 NANGUE MARCEL 00:51:48 SEM M 102 SEM 220
281 RIBOTH GEORGES MARIE 00:51:49 V2M CSSDA M 51 V2M 168
282 PADER Jose 00:51:55 V2M M 52 V2M 240
283 TRULES CLAUDINE 00:51:59 V2F F 27 F - 5 V2F 368
284 CLAIN Mathias 00:52:07 ESM M 6 ESM 467
285 DESCHAMPS JEAN MARC 00:52:13 V2M M 53 V2M 164
286 DRULe Alexandre 00:52:28 SEM M 103 SEM 255
287 PAVADE JOHAN 00:52:30 SEM M 104 SEM 360
288 RIBOTTE BERNARD 00:52:34 V2M M 54 V2M 84
289 HOAREAU ANIELLE 00:52:34 V2F F 28 F - 6 V2F 83
290 HOARAU Christophe 00:52:35 V1M M 80 V1M 46
291 DESSALLES Yannick 00:52:35 V1M M 81 V1M 309
292 PITOU fabienne 00:52:36 V1F F 29 F - 14 V1F 333
293 DENNIEL JEAN FRANCOIS 00:52:40 V1M M 82 V1M 54
294 LAPIERRE Florence 00:52:41 SEF F 30 F - 8 SEF 196
295 SQUARZONI Michelle 00:52:42 V3F F 31 F - 1 V3F 632
296 MALL IDRISS 00:52:43 SEM ASPN M 105 SEM 578
297 PEPIN peggy 00:52:44 V1F F 32 F - 15 V1F 208
298 RONDET Christophe 00:52:44 V1M M 83 V1M 187
299 GOUEDAR Carole 00:52:45 V1F F 33 F - 16 V1F 593
300 DESPERCHES FABIENNE 00:52:46 V1F RUN ODYSSEA F 34 F - 17 V1F 311
301 BOURGOIN Alain Pierre 00:52:47 SEM M 106 SEM 42
302 HOARAU SEBASTIEN 00:52:47 SEM CAPOSS M 107 SEM 316
303 BATAILLE Clement 00:52:48 SEM M 108 SEM 650
304 BRAVIN Aurelie 00:52:57 SEF F 35 F - 9 SEF 301
305 FRANCO CHRISTOPHE 00:52:59 V2M DDC M 55 V2M 199
306 POLEYA Jean Francois 00:53:02 V2M M 56 V2M 490
307 DELANOIX Christophe 00:53:04 V1M M 84 V1M 32
308 PANECHOU Vincent 00:53:18 V2M M 57 V2M 634
309 BARDIN ERIC 00:53:21 V1M M 85 V1M 90
310 TURPIN Johan 00:53:23 SEM M 109 SEM 522
311 FOUROT Patrick 00:53:25 V2M M 58 V2M 499
312 HOARAU VINCENSINI Pascale 00:53:31 V1F F 36 F - 18 V1F 45
313 SAUTRON Freddy 00:53:35 SEM M 110 SEM 396
314 BRASSAMIN Mahefanirina 00:53:37 SEF F 37 F - 10 SEF 636
315 OUCENI CHRISTOPHE 00:53:39 SEM M 111 SEM 329
316 REBIARD PAYET SYLVIE 00:53:44 V1F F 38 F - 19 V1F 300
317 PAYET LOIC 00:53:49 SEM ATHLETIQUE M 112 SEM 380
318 RAJAONARISON ilda marie alexandra 00:53:53 SEF F 39 F - 11 SEF 180
319 RIBECQ Sandra 00:53:56 V1F F 40 F - 20 V1F 363
320 POLLUX LARISSA 00:54:01 SEF F 41 F - 12 SEF 243
321 JUVESY Thomas 00:54:05 SEM M 113 SEM 198
322 SYLVOS FRANCOISE 00:54:09 V2F CASM F 42 F - 7 V2F 558
323 FONTAINE JEAN PAUL 00:54:09 V3M M 8 V3M 58
324 SCAIFE Joel 00:54:18 SEM M 114 SEM 307
325 HUBERT BERNARD 00:54:22 V2M CAPOSS M 59 V2M 531
326 RONDET Marielle 00:54:23 V1F F 43 F - 21 V1F 156
327 LAURET CHARLES 00:54:24 SEM RCSD M 115 SEM 235
328 PANDOR JONATHAN 00:54:27 SEM M 116 SEM 453
329 ABDALLAH Charif Toiliha 00:54:29 V2M M 60 V2M 485
330 HOARAU Paul Frederic 00:54:34 V2M M 61 V2M 62
331 DARGONNE Henri Claude 00:54:35 ESM M 7 ESM 468
332 LOUTCHMIA REJANE 00:54:41 V1F TCSA F 44 F - 22 V1F 272
333 LALA MOHAMMAD SHOEEB 00:54:41 V1M CASL M 86 V1M 1000
334 CAZANOVE MARYSE 00:54:42 V1F TCSA F 45 F - 23 V1F 285
335 LANGEVIN Yves 00:54:45 V2M M 62 V2M 322
336 CARO Nicolas 00:54:52 SEM M 117 SEM 203
337 THIEL marion 00:54:58 SEF F 46 F - 13 SEF 343
338 MAZEL Angelique 00:54:59 V1F F 47 F - 24 V1F 624
339 ARMOUET David 00:55:00 V1M M 87 V1M 323
340 TESSIER Christian 00:55:01 V2M M 63 V2M 254
341 ESPARON Jerome 00:55:14 V2M M 64 V2M 280
342 LEBEAU julien 00:55:18 V2M M 65 V2M 517
343 RAKOTONINDRINA Miarivola 00:55:20 SEF F 48 F - 14 SEF 293
344 PARSOURAMIN LATCHIMY Julien 00:55:24 SEM M 118 SEM 319
345 SINAMALE SOSTHENE 00:55:29 V2M M 66 V2M 364
346 MONGENDRE Tony 00:55:31 V1M M 88 V1M 154
347 FIGUESTER Jean Paul 00:55:36 V3M ACSP M 9 V3M 470
348 ASSOUMANI Mikidachi 00:55:41 SEM M 119 SEM 159
349 PAYET ERUDEL BRICE 00:55:43 SEM RCSD M 120 SEM 101
350 HY chandara 00:55:43 V1M M 89 V1M 125
351 GACE HUGUETTE 00:55:50 V1F F 49 F - 25 V1F 351
352 SOUCHON Alexandre 00:56:04 SEM M 121 SEM 484
353 LAFOUGE NICOLAS 00:56:05 V1M M 90 V1M 354
354 HOARAU Jean_Francois 00:56:05 V1M M 91 V1M 277
355 TUGAR Emmanuel 00:56:15 SEM M 122 SEM 501
356 QUESDEVILLE Emeline 00:56:16 SEF F 50 F - 15 SEF 121
357 VERZEAUX Melanie 00:56:16 SEF F 51 F - 16 SEF 119
358 ENCATASSAMY gilbert 00:56:18 V1M M 92 V1M 2
359 DEGRENDEL benoit 00:56:22 V1M M 93 V1M 40
360 MOUROUVIN Georges Marie 00:56:25 V1M M 94 V1M 600
361 LOISEL Stephane 00:56:29 V1M M 95 V1M 618
362 HAPOLD NELLY 00:56:33 V2F CAPOSS F 52 F - 8 V2F 317
363 LEGROS LAURENCE 00:56:34 SEF F 53 F - 17 SEF 392
364 BRAVO federico 00:56:39 SEM M 123 SEM 258
365 GAILLARD antoine 00:56:39 SEM M 124 SEM 14
366 FONTAINE Fabiola 00:56:40 V1F F 54 F - 26 V1F 592
367 PAYET Fabien 00:56:41 SEM M 125 SEM 29
368 PIRBAY Jeremy 00:56:42 SEM M 126 SEM 34
369 AMO Mathieu 00:56:44 SEM M 127 SEM 78
370 JIBASSIA FRIDA 00:56:50 SEF F 55 F - 18 SEF 523
371 VALLEE ALEXIS 00:56:51 ESM M 8 ESM 184
372 JOTTREAU Elodie 00:56:51 SEF F 56 F - 19 SEF 308
373 VALLEE LAURENT 00:56:52 V1M DENIV M 96 V1M 100
374 JAURES Isabelle 00:56:53 SEF F 57 F - 20 SEF 169
375 SINAMA MOUTAMA PATRICK 00:56:55 V1M AJAC M 97 V1M 379
376 SINIMALE LINDA 00:56:56 V1F AJAC F 58 F - 27 V1F 419
377 GUILLARD nicolas 00:57:10 V1M M 98 V1M 209
378 MICHEL Christelle 00:57:11 V1F RUN ODYSSEA F 59 F - 28 V1F 492
379 PERRET Tom 00:57:12 CAM M 9 CAM 462
380 CHEVALIER VIRGINIE 00:57:14 V1F DENIV F 60 F - 29 V1F 200
381 DA SILVA SIMON 00:57:26 SEM M 128 SEM 176
382 POULAIN LAURA 00:57:30 SEF F 61 F - 21 SEF 455
383 MIRSAEB Frederic 00:57:32 SEM M 129 SEM 515
384 CERVEAUX Virginie 00:57:33 SEF F 62 F - 22 SEF 516
385 CANIGUY MICHELE 00:57:35 V1F TCSA F 63 F - 30 V1F 136
386 CHEVALIER Maryse 00:57:51 SEF F 64 F - 23 SEF 115
387 MAILLOT Daniel 00:57:54 V2M M 67 V2M 550
388 FONTAINE alexandre 00:57:57 SEM M 130 SEM 247
389 BARET Gerald 00:58:04 V1M M 99 V1M 197
390 DEJEAN Frederic 00:58:14 V1M M 100 V1M 631
391 ELISABETH Jean Frederic 00:58:23 V1M M 101 V1M 488
392 MARIANNE Kevin 00:58:24 SEM M 131 SEM 648
393 ALI SAID Amina 00:58:24 SEF F 65 F - 24 SEF 313
394 GESQUIeRE Solene 00:58:26 SEF F 66 F - 25 SEF 245
395 PONIN sida 00:58:32 SEF F 67 F - 26 SEF 195
396 MUSSIDAN Sidonie 00:58:37 V1F F 68 F - 31 V1F 601
397 BACHEL Bruno 00:58:44 V2M M 68 V2M 341
398 FOUCTEAU VERONIQUE 00:58:49 SEF CSSDA F 69 F - 27 SEF 96
399 MARIKO ADAMA 00:58:50 SEM DENIV M 132 SEM 227
400 SIHOU RICHELIN 00:58:57 V3M CSSDA M 10 V3M 410
401 LABBE Gita 00:59:07 SEF F 70 F - 28 SEF 179
402 BOURA Raynat 00:59:08 SEF F 71 F - 29 SEF 325
403 POLEYA JOHN 00:59:14 SEM M 133 SEM 362
404 GONTHIER Mathias 00:59:15 SEM M 134 SEM 12
405 PIANEZZE lauriane 00:59:15 SEF F 72 F - 30 SEF 82
406 ROBIN CHRISTOPHE 00:59:23 V2M M 69 V2M 152
407 138 N.N. 00:59:46 M M 1 M 138
408 CLAIN EMELINE 00:59:47 SEF F 73 F - 31 SEF 428
409 LAMBRIQUET EPOUSE VITRY MINDRY 00:59:54 SEF F 74 F - 32 SEF 312
410 CALLY MATHILDE 00:59:56 SEF F 75 F - 33 SEF 117
411 FOULLON anne laure 00:59:57 SEF F 76 F - 34 SEF 328
412 VIRIN Jean Marie 01:00:03 V2M M 70 V2M 472
413 INGAR emilie 01:00:04 SEF F 77 F - 35 SEF 297
414 LE PORT Thierry 01:00:10 SEM M 135 SEM 340
415 LALA Abdoullah 01:00:10 V1M M 102 V1M 504
416 CHARRIER Elodie 01:00:10 SEF F 78 F - 36 SEF 256
417 GOURAUD CLAIRE 01:00:11 SEF F 79 F - 37 SEF 217
418 RIVIERE Marie Veronique 01:00:15 V1F F 80 F - 32 V1F 459
419 HOARAU CAROLE 01:00:15 V1F F 81 F - 33 V1F 519
420 ROBERT LYSEME 01:00:22 V2F F 82 F - 9 V2F 71
421 DURAND Raphael 01:00:23 V1M M 103 V1M 491
422 VIDOT Mathilde 01:00:25 V2F F 83 F - 10 V2F 613
423 ALBARET JAIMIE 01:00:25 SEF CAPOSS F 84 F - 38 SEF 139
424 ODULES Sandra 01:00:26 SEF F 85 F - 39 SEF 602
425 POUDROUX GUILLAUME 01:00:26 SEM ASPN M 136 SEM 577
426 DEFAUD Alexandre 01:00:26 SEM M 137 SEM 174
427 HOAREAU GUY JOEL 01:00:34 V1M M 104 V1M 79
428 HOAREAU Julie 01:00:35 CAF F 86 F - 2 CAF 80
429 SOLINOT Sophie 01:00:35 SEF F 87 F - 40 SEF 185
430 DALIBERT Arthur 01:00:36 SEM M 138 SEM 296
431 HOAREAU Anne Sophie 01:00:36 JUF F 88 F - 1 JUF 304
432 SEVINGUE ALINE 01:00:37 V2F TCSA F 89 F - 11 V2F 214
433 RAMSAMY ANNABELLE 01:00:40 SEF F 90 F - 41 SEF 65
434 BOURRAN Louckman 01:00:40 SEM M 139 SEM 649
435 RITTER Anne Sophie 01:00:42 SEF F 91 F - 42 SEF 524
436 HENRY PHILIPPE 01:00:42 V1M M 105 V1M 207
437 BEAUMONT corinne 01:00:45 V1F F 92 F - 34 V1F 532
438 BOISSIER herve 01:00:48 V3M M 11 V3M 193
439 GERARDIN LIONEL 01:00:49 V2M M 71 V2M 38
440 MERIAN GERALDINE 01:00:53 V1F DENIV F 93 F - 35 V1F 43
441 BLAS Maurice 01:00:56 V2M M 72 V2M 6
442 ARDIALE Jackie 01:01:03 SEF F 94 F - 43 SEF 281
443 PAYEN JEAN PIERRE 01:01:07 V3M TCSA M 12 V3M 225
444 PAYET Thierry Jean Eric 01:01:11 V1M M 106 V1M 616
445 PAYET Nathalie 01:01:13 V2F F 95 F - 12 V2F 617
446 CASSAMALY NAVCHAD 01:01:18 V1M M 107 V1M 417
447 SOUPAYA VALLIAMA FABIOLA 01:01:25 SEF DENIV F 96 F - 44 SEF 215
448 SARRET TANIA 01:01:53 V1F F 97 F - 36 V1F 216
449 ALAMELE Yannick 01:01:57 SEM M 140 SEM 253
450 PAYET Peggy 01:02:13 SEF F 98 F - 45 SEF 622
451 POUMAILLOUX Agnes 01:02:17 SEF F 99 F - 46 SEF 204
452 HOARAU Joseph Noe 01:02:22 V2M M 73 V2M 480
453 AH SANE Eddy 01:02:28 SEM M 141 SEM 130
454 DASSACHETTY Veronique 01:02:36 SEF F 100 F - 47 SEF 590
455 SELLIER Clement 01:02:45 ESM M 9 ESM 525
456 ROBIN Marine 01:02:46 SEF F 101 F - 48 SEF 127
457 FONTAINE christophe 01:02:47 SEM M 142 SEM 85
458 AURE MARYSE 01:02:48 V1F F 102 F - 37 V1F 264
459 BARDEUR Jean Francois 01:02:50 V2M M 74 V2M 643
460 HOARAU ACQUIER Nathalie 01:02:51 V2F F 103 F - 13 V2F 497
461 TRESPAILLE BARRAU laurent 01:03:05 V1M M 108 V1M 338
462 MONTROUGE VALERIE 01:03:07 V1F TCSA F 104 F - 38 V1F 95
463 BOUCICAUD Florence 01:03:07 V1F F 105 F - 39 V1F 173
464 ASSASSA JONATHAN 01:03:09 SEM M 143 SEM 202
465 CASTEL jean francois 01:03:20 V1M M 109 V1M 75
466 BOULEVART Raphaelle 01:03:26 JUF F 106 F - 2 JUF 461
467 MARTINO Jean bernard 01:03:33 V1M M 110 V1M 182
468 DESPREAUX Claire 01:03:35 V1F F 107 F - 40 V1F 162
469 JAMS KATHIA 01:03:38 SEF F 108 F - 49 SEF 352
470 MARLEUX Joel Charles 01:03:38 V2M M 75 V2M 507
471 ASSASSA Georges 01:03:42 V2M M 76 V2M 327
472 JAOUEN JORDAN 01:03:45 SEM M 144 SEM 261
473 GALMAR wilfred jean sully 01:04:12 V1M M 111 V1M 233
474 CADET MAGALI 01:04:12 SEF F 109 F - 50 SEF 232
475 JEAN BAPTITSE Valerie 01:04:18 V1F F 110 F - 41 V1F 294
476 BETSMAN Jean Alain 01:04:21 V1M M 112 V1M 615
477 COSTE Jessica 01:04:24 SEF F 111 F - 51 SEF 284
478 MIR Jean Baptiste 01:04:25 SEM M 145 SEM 512
479 SOULET Emilie 01:04:25 SEF F 112 F - 52 SEF 231
480 RICQUEBOURG Hugues 01:04:30 V2M M 77 V2M 320
481 APAVOU Francoise 01:04:31 V1F F 113 F - 42 V1F 331
482 DALELE Mimose 01:04:32 V3F F 114 F - 2 V3F 477
483 ARTHEMISE Karine 01:04:36 SEF F 115 F - 53 SEF 123
484 BEGUE JOEL 01:04:36 V1M RCSD M 113 V1M 124
485 DOMENGET Sandrine 01:04:44 SEF F 116 F - 54 SEF 303
486 DERUELLE CHRISTOPHE 01:04:44 V1M M 114 V1M 306
487 STOCLET Eric 01:04:44 V1M M 115 V1M 330
488 DIDELOT FLORINE 01:05:00 SEF DENIV F 117 F - 55 SEF 229
489 CODRUS Jessica 01:05:11 SEF F 118 F - 56 SEF 589
490 AHALADA Mohamed 01:05:21 V3M M 13 V3M 486
491 RIVIERE Christine 01:05:25 V1F F 119 F - 43 V1F 609
492 MERCIER GUY HENRI 01:05:36 V3M M 14 V3M 299
493 SORRE Veronique Harimanana 01:05:36 V1F F 120 F - 44 V1F 177
494 PAUSE Camille 01:05:37 CAM M 10 CAM 606
495 LOCATE HAUSMANN 01:05:38 V3M CSSDA M 15 V3M 228
496 LEVADOUX Chloe 01:05:39 SEF F 121 F - 57 SEF 151
497 VELLAYE CINDY 01:05:43 SEF F 122 F - 58 SEF 370
498 SIDATE NATHALIE 01:05:49 V1F F 123 F - 45 V1F 474
499 DARGAI ISSA 01:06:14 SEM DENIV M 146 SEM 416
500 PEVERELLY Stephanie 01:06:18 V1F F 124 F - 46 V1F 118
501 JUBIN Vincent 01:06:45 V2M M 78 V2M 230
502 PAQUIRY Eddy 01:06:55 SEM M 147 SEM 22
503 ERICK bojanowski 01:06:58 V2M M 79 V2M 104
504 LOF Marie Patricia 01:07:19 V1F F 125 F - 47 V1F 148
505 GRONDIN MARIE ELIZE 01:07:21 V2F F 126 F - 14 V2F 36
506 HEN TING Nadia 01:07:25 SEF F 127 F - 59 SEF 183
507 VALMONT Jean Albert 01:07:27 V2M M 80 V2M 559
508 FONTAINE Marie Berthe 01:07:47 V1F F 128 F - 48 V1F 645
509 TECHER Joelle 01:07:49 V2F F 129 F - 15 V2F 498
510 ROBERT Adele 01:07:59 SEF F 130 F - 60 SEF 50
511 MAILLOT SONIA 01:08:08 V1F TCSA F 131 F - 49 V1F 411
512 MINATCHY EVA 01:08:24 V3F CSSDA F 132 F - 3 V3F 157
513 WAGNER Corinne 01:08:47 V3F F 133 F - 4 V3F 291
514 RATSIMBAZAFY PRISCA 01:08:55 SEF F 134 F - 61 SEF 456
515 VANRIETVELDE ERIKA 01:08:57 V1F F 135 F - 50 V1F 149
516 VANRIETVELDE CEDRIC 01:08:58 V1M M 116 V1M 147
517 MAILLOT Leilye 01:09:06 SEF F 136 F - 62 SEF 463
518 TESCHER Marion 01:09:14 SEF F 137 F - 63 SEF 286
519 GENCE Lydie 01:09:32 SEF F 138 F - 64 SEF 137
520 LEPERLIER SANDRINE 01:09:37 SEF F 139 F - 65 SEF 356
521 CALLY Sanjay 01:09:48 SEM M 148 SEM 339
522 APAVOU Thierry 01:09:50 V1M M 117 V1M 332
523 POLEYA NATHALIE 01:10:05 V2F F 140 F - 16 V2F 72
524 RENAUD jeremy 01:10:18 JUM M 4 JUM 271
525 FRUTEAU DE LACLOS Nathalie 01:10:39 SEF F 141 F - 66 SEF 244
526 BLAS Christel 01:10:43 V1F F 142 F - 51 V1F 55
527 BERCY Jean Claude 01:10:56 V4M M 1 V4M 160
528 LASSOUED Ines 01:11:03 CAF F 143 F - 3 CAF 506
529 GUILLARD MURIELLE 01:11:16 V1F F 144 F - 52 V1F 210
530 CHAMBE Patricia 01:11:22 V1F F 145 F - 53 V1F 44
531 MAILLOT Marie Sophie 01:11:34 V1F F 146 F - 54 V1F 165
532 FOKKINGA Vincent 01:11:46 V2M M 81 V2M 89
533 FLAVIER Marion 01:11:50 SEF F 147 F - 67 SEF 310
534 DUPORT Pauline 01:11:50 SEF F 148 F - 68 SEF 321
535 PERUCH SANDRINE 01:11:57 SEF F 149 F - 69 SEF 361
536 GOVINDIN Pascaline 01:11:59 V1F F 150 F - 55 V1F 262
537 BOYER Edwina 01:12:15 SEF F 151 F - 70 SEF 483
538 DUPONT mickael 01:12:16 V1M M 118 V1M 535
539 THAO THION MARCELINE 01:12:27 V2F STASA F 152 F - 17 V2F 141
540 GUIRAUD jean 01:12:29 V3M M 16 V3M 57
541 EDMOND sabrina 01:13:11 V1F F 153 F - 56 V1F 67
542 LABBE Achille 01:15:08 V1M M 119 V1M 274
543 MOULLAN Yasmine 01:15:08 V1F F 154 F - 57 V1F 287
544 GONFO Julie 01:15:09 SEF F 155 F - 71 SEF 278
545 MIRANVILLE Pascaline 01:15:19 V1F F 156 F - 58 V1F 597
546 THOMAS Reine Claude 01:15:54 V1M M 120 V1M 610
547 TRECASSE BERNADETTE 01:16:10 V2F F 157 F - 18 V2F 16
548 GARREAU Isabelle 01:16:21 V1F F 158 F - 59 V1F 107
549 BONNABEAU Kevin 01:16:25 SEM M 149 SEM 190
550 CORRE Marie 01:16:26 SEF F 159 F - 72 SEF 191
551 ALIBAY MAEVA CHENAZE 01:16:56 V1F F 160 F - 60 V1F 155
552 ALIBAY Nadira 01:16:56 V2F F 161 F - 19 V2F 621
553 MIRALIKAN Melissa 01:17:58 SEF F 162 F - 73 SEF 178
554 LEFUMAT Nadine 01:18:56 V2F F 163 F - 20 V2F 595
555 CONSTANT SOPHIE 01:19:20 V1F F 164 F - 61 V1F 348
556 VALENTIN Liliane 01:19:21 V2F CSSDA F 165 F - 21 V2F 482
557 LEBIDEAU Valerie 01:20:36 V1F F 166 F - 62 V1F 460
558 CLAIRE ANGELIQUE 01:20:46 SEF F 167 F - 74 SEF 7
559 FRANCOIS MARIE LAURENCE 01:20:47 SEF F 168 F - 75 SEF 5
560 FILAIN ANNE GAELLE 01:21:12 SEF F 169 F - 76 SEF 430
561 MAGDELEINE Ingrid 01:22:32 SEF F 170 F - 77 SEF 279
562 HOARAU Elisabeth 01:27:32 SEF F 171 F - 78 SEF 422
563 GEORGET MARIE THERESE 01:27:43 V4F CSSDA F 172 F - 1 V4F 413
564 RICHARD Chantale 01:29:40 V2F F 173 F - 22 V2F 608
565 LOTRIAN BERNARD 01:33:23 V2M CSSDA M 82 V2M 172
566 DARGONNE Marie Sandrine 01:33:23 SEF F 174 F - 79 SEF 469


ReferencementCe site est listé dans la catégorie Sport : Sports extrêmes Dictionnaire
| Accueil | La Réunion  Vue du ciel | Météo | Cyclones | Volcan | Cirques de Mafate , Cilaos , Salazie | Photos Randonnées | Randonnées Réunion: Randos Espiègle , Courses montagne | Diagonale des Fous |  Marathon des Sables | Voyages Les stats du site | Fonds écran | Plan du site | Blog de runraid | Galerie photos Sport Réunion |